createdAt,value
2023-05-22T00:03:00.616Z,56.72
2023-05-22T00:08:12.239Z,57.01
2023-05-22T00:13:21.032Z,57.17
2023-05-22T00:18:29.388Z,57.38
2023-05-22T00:23:37.745Z,57.46
2023-05-22T00:28:46.007Z,57.66
2023-05-22T00:33:54.131Z,57.82
2023-05-22T00:39:02.533Z,57.95
2023-05-22T00:44:11.068Z,58.09
2023-05-22T00:49:19.579Z,58.23
2023-05-22T00:54:28.036Z,58.32
2023-05-22T00:59:36.707Z,58.48
2023-05-22T01:04:46.061Z,58.64
2023-05-22T01:09:54.060Z,58.74
2023-05-22T01:15:10.634Z,58.87
2023-05-22T01:20:26.350Z,58.95
2023-05-22T01:25:55.897Z,59.06
2023-05-22T01:31:09.554Z,59.09
2023-05-22T01:36:20.637Z,59.25
2023-05-22T01:41:29.546Z,59.39
2023-05-22T01:46:37.128Z,59.52
2023-05-22T01:51:54.140Z,59.71
2023-05-22T01:57:08.110Z,59.80
2023-05-22T02:02:19.115Z,59.91
2023-05-22T02:07:27.190Z,60.02
2023-05-22T02:12:35.970Z,60.14
2023-05-22T02:17:45.868Z,60.24
2023-05-22T02:22:53.330Z,60.28
2023-05-22T02:28:00.682Z,60.33
2023-05-22T02:33:09.751Z,60.38
2023-05-22T02:38:17.253Z,60.46
2023-05-22T02:43:25.295Z,60.58
2023-05-22T02:48:32.757Z,60.74
2023-05-22T02:53:41.759Z,60.98
2023-05-22T02:58:49.131Z,61.26
2023-05-22T03:03:56.674Z,61.48
2023-05-22T03:09:05.252Z,62.86
2023-05-22T03:14:12.894Z,63.89
2023-05-22T03:19:20.632Z,64.65
2023-05-22T03:24:28.297Z,65.04
2023-05-22T03:29:36.757Z,65.29
2023-05-22T03:34:45.177Z,65.42
2023-05-22T03:39:52.820Z,65.81
2023-05-22T03:45:08.018Z,66.14
2023-05-22T03:50:16.058Z,66.48
2023-05-22T03:55:23.406Z,66.77
2023-05-22T04:00:32.223Z,66.85
2023-05-22T04:05:39.519Z,66.95
2023-05-22T04:10:47.287Z,67.15
2023-05-22T04:15:54.762Z,67.28
2023-05-22T04:21:03.385Z,67.36
2023-05-22T04:26:11.118Z,67.28
2023-05-22T04:31:18.943Z,66.89
2023-05-22T04:36:27.142Z,66.76
2023-05-22T04:41:34.776Z,67.18
2023-05-22T04:46:42.168Z,67.52
2023-05-22T04:51:50.088Z,67.69
2023-05-22T04:56:57.897Z,67.68
2023-05-22T05:02:07.201Z,67.65
2023-05-22T05:07:18.018Z,67.52
2023-05-22T05:12:25.585Z,67.23
2023-05-22T05:17:33.306Z,66.76
2023-05-22T05:22:40.934Z,66.35
2023-05-22T05:27:49.296Z,66.03
2023-05-22T05:32:58.879Z,65.57
2023-05-22T05:38:30.601Z,65.21
2023-05-22T05:43:39.063Z,64.75
2023-05-22T05:48:49.328Z,64.27
2023-05-22T05:53:57.816Z,64.60
2023-05-22T05:59:06.419Z,63.61
2023-05-22T06:04:20.526Z,63.31
2023-05-22T06:09:29.372Z,63.01
2023-05-22T06:14:46.646Z,62.55
2023-05-22T06:19:55.878Z,62.10
2023-05-22T06:25:03.834Z,61.64
2023-05-22T06:30:16.840Z,61.15
2023-05-22T06:35:29.629Z,60.71
2023-05-22T06:40:39.292Z,60.37
2023-05-22T06:46:00.089Z,60.18
2023-05-22T06:51:19.624Z,59.75
2023-05-22T06:56:30.548Z,59.23
2023-05-22T07:01:41.864Z,58.63
2023-05-22T07:06:52.682Z,57.98
2023-05-22T07:12:02.189Z,57.38
2023-05-22T07:17:12.002Z,56.90
2023-05-22T07:22:22.623Z,56.34
2023-05-22T07:27:30.409Z,55.93
2023-05-22T07:32:39.222Z,55.54
2023-05-22T07:37:48.299Z,55.12
2023-05-22T07:42:57.151Z,54.96
2023-05-22T07:48:05.367Z,54.84
2023-05-22T07:53:16.976Z,54.42
2023-05-22T07:58:26.409Z,53.43
2023-05-22T08:03:34.524Z,52.54
2023-05-22T08:08:42.371Z,51.78
2023-05-22T08:13:50.830Z,51.25
2023-05-22T08:18:58.697Z,50.45
2023-05-22T08:24:07.524Z,49.78
2023-05-22T08:29:15.754Z,49.44
2023-05-22T08:34:23.750Z,49.13
2023-05-22T08:39:31.820Z,48.54
2023-05-22T08:44:39.730Z,48.13
2023-05-22T08:49:51.674Z,47.66
2023-05-22T08:54:59.828Z,47.18
2023-05-22T09:00:09.178Z,46.82
2023-05-22T09:05:18.020Z,46.51
2023-05-22T09:10:25.698Z,46.30
2023-05-22T09:15:35.973Z,46.04
2023-05-22T09:20:43.648Z,45.71
2023-05-22T09:25:52.854Z,45.18
2023-05-22T09:31:04.163Z,44.95
2023-05-22T09:36:14.354Z,44.58
2023-05-22T09:41:26.676Z,44.39
2023-05-22T09:46:42.052Z,44.03
2023-05-22T09:51:51.305Z,43.49
2023-05-22T09:57:01.165Z,43.14
2023-05-22T10:02:11.377Z,42.62
2023-05-22T10:07:20.815Z,41.86
2023-05-22T10:12:30.563Z,41.30
2023-05-22T10:17:38.564Z,40.72
2023-05-22T10:22:49.269Z,40.60
2023-05-22T10:27:57.750Z,40.45
2023-05-22T10:33:12.868Z,40.21
2023-05-22T10:38:45.916Z,40.05
2023-05-22T10:43:54.138Z,40.03
2023-05-22T10:49:02.187Z,39.75
2023-05-22T10:54:10.345Z,39.55
2023-05-22T10:59:17.741Z,39.60
2023-05-22T11:04:26.687Z,39.95
2023-05-22T11:09:36.357Z,40.31
2023-05-22T11:14:44.542Z,40.50
2023-05-22T11:20:02.495Z,40.30
2023-05-22T11:25:12.689Z,40.19
2023-05-22T11:30:20.966Z,40.10
2023-05-22T11:35:29.170Z,40.04
2023-05-22T11:40:37.124Z,39.90
2023-05-22T11:45:45.193Z,39.85
2023-05-22T11:50:53.179Z,39.84
2023-05-22T11:56:06.374Z,39.74
2023-05-22T12:01:14.486Z,39.87
2023-05-22T12:06:22.908Z,39.99
2023-05-22T12:11:36.946Z,39.92
2023-05-22T12:16:46.358Z,40.03
2023-05-22T12:21:55.932Z,39.95
2023-05-22T12:27:03.672Z,40.08
2023-05-22T12:32:12.830Z,39.92
2023-05-22T12:37:25.671Z,39.92
2023-05-22T12:42:33.676Z,40.06
2023-05-22T12:47:42.123Z,40.19
2023-05-22T12:52:50.419Z,39.96
2023-05-22T12:57:58.722Z,39.81
2023-05-22T13:03:07.551Z,39.99
2023-05-22T13:08:16.752Z,39.79
2023-05-22T13:13:25.167Z,39.78
2023-05-22T13:18:33.275Z,39.96
2023-05-22T13:23:41.541Z,40.03
2023-05-22T13:28:49.599Z,39.98
2023-05-22T13:33:57.557Z,39.71
2023-05-22T13:39:06.684Z,39.45
2023-05-22T13:44:14.464Z,39.06
2023-05-22T13:49:22.730Z,38.89
2023-05-22T13:54:31.460Z,38.73
2023-05-22T13:59:39.577Z,38.74
2023-05-22T14:04:48.703Z,38.78
2023-05-22T14:09:58.079Z,38.86
2023-05-22T14:15:08.937Z,38.92
2023-05-22T14:20:17.834Z,38.52
2023-05-22T14:25:26.948Z,38.18
2023-05-22T14:30:35.232Z,37.92
2023-05-22T14:35:43.509Z,37.67
2023-05-22T14:40:52.637Z,37.33
2023-05-22T14:46:00.596Z,37.07
2023-05-22T14:51:08.535Z,37.06
2023-05-22T14:56:16.968Z,36.98
2023-05-22T15:01:24.895Z,37.00
2023-05-22T15:06:34.059Z,37.04
2023-05-22T15:11:46.706Z,37.24
2023-05-22T15:16:54.433Z,37.19
2023-05-22T15:22:15.710Z,36.89
2023-05-22T15:27:26.947Z,36.69
2023-05-22T16:33:49.846Z,36.35
2023-05-22T16:38:58.168Z,36.28
2023-05-22T16:44:06.114Z,36.25
2023-05-22T16:49:13.964Z,36.17
2023-05-22T16:54:22.188Z,36.04
2023-05-22T16:59:30.255Z,36.06
2023-05-22T17:04:39.000Z,36.15
2023-05-22T17:09:47.533Z,36.21
2023-05-22T17:14:55.612Z,36.28
2023-05-22T17:20:06.635Z,36.40
2023-05-22T17:25:16.040Z,36.48
2023-05-22T17:30:25.012Z,36.60
2023-05-22T17:35:33.320Z,36.76
2023-05-22T17:40:45.457Z,36.89
2023-05-22T17:45:54.956Z,36.97
2023-05-22T17:51:03.197Z,37.00
2023-05-22T17:56:11.541Z,37.05
2023-05-22T18:01:20.284Z,37.12
2023-05-22T18:06:29.142Z,37.17
2023-05-22T18:11:37.010Z,37.24
2023-05-22T18:16:45.477Z,37.31
2023-05-22T18:21:54.306Z,37.41
2023-05-22T18:27:02.416Z,37.54
2023-05-22T18:32:12.286Z,37.82
2023-05-22T18:37:21.630Z,38.36
2023-05-22T18:42:30.178Z,39.32
2023-05-22T18:47:38.562Z,39.92
2023-05-22T18:52:46.765Z,40.40
2023-05-22T18:57:54.346Z,40.93
2023-05-22T19:03:02.900Z,41.21
2023-05-22T19:08:11.814Z,41.57
2023-05-22T19:13:19.739Z,41.85
2023-05-22T19:18:28.850Z,42.24
2023-05-22T19:23:37.963Z,42.61
2023-05-22T19:28:45.741Z,43.13
2023-05-22T19:33:53.752Z,43.78
2023-05-22T19:39:02.315Z,44.44
2023-05-22T19:44:10.300Z,45.02
2023-05-22T19:49:18.577Z,45.60
2023-05-22T19:54:27.281Z,46.17
2023-05-22T19:59:36.688Z,46.87
2023-05-22T20:04:49.296Z,47.30
2023-05-22T20:09:57.704Z,47.90
2023-05-22T20:15:07.280Z,48.65
2023-05-22T20:20:16.134Z,49.32
2023-05-22T20:25:25.071Z,49.86
2023-05-22T20:30:33.060Z,50.36
2023-05-22T20:35:41.501Z,50.73
2023-05-22T20:40:50.128Z,51.00
2023-05-22T20:45:58.642Z,51.33
2023-05-22T20:51:07.290Z,51.65
2023-05-22T20:56:15.346Z,51.86
2023-05-22T21:01:22.982Z,52.05
2023-05-22T21:06:30.567Z,52.24
2023-05-22T21:11:38.729Z,52.44
2023-05-22T21:16:46.592Z,52.69
2023-05-22T21:21:54.572Z,52.93
2023-05-22T21:27:02.911Z,53.39
2023-05-22T21:32:11.406Z,53.82
2023-05-22T21:37:19.123Z,54.19
2023-05-22T21:42:34.806Z,54.47
2023-05-22T21:47:53.071Z,54.61
2023-05-22T21:53:01.771Z,54.86
2023-05-22T21:58:10.794Z,55.11
2023-05-22T22:03:18.744Z,55.36
2023-05-22T22:08:28.751Z,55.71
2023-05-22T22:13:36.517Z,55.93
2023-05-22T22:18:45.146Z,56.11
2023-05-22T22:23:52.749Z,56.22
2023-05-22T22:29:00.662Z,56.48
2023-05-22T22:34:08.544Z,56.65
2023-05-22T22:39:16.506Z,56.82
2023-05-22T22:44:24.436Z,56.80
2023-05-22T22:49:33.224Z,56.83
2023-05-22T22:54:43.072Z,56.87
2023-05-22T22:59:52.757Z,56.78
2023-05-22T23:05:01.003Z,56.76
2023-05-22T23:10:10.673Z,56.72
2023-05-22T23:15:18.839Z,56.67
2023-05-22T23:20:26.772Z,56.79
2023-05-22T23:25:35.303Z,57.03
2023-05-22T23:30:43.279Z,57.16
2023-05-22T23:35:52.480Z,57.09
2023-05-22T23:41:00.380Z,57.06
2023-05-22T23:46:08.282Z,57.31
2023-05-22T23:51:15.970Z,57.29
2023-05-22T23:56:23.944Z,57.12
